createdAt,value
2022-12-12T09:52:36.020Z,-1.65
2022-12-12T09:53:39.272Z,-1.41
2022-12-12T09:54:40.772Z,-1.53
2022-12-12T09:56:13.988Z,-1.37
2022-12-12T09:57:37.578Z,-1.23
2022-12-12T09:59:03.483Z,-1.26
2022-12-12T10:00:09.485Z,-1.49
2022-12-12T10:01:28.018Z,-1.30
2022-12-12T10:02:48.190Z,-1.51
2022-12-12T10:04:04.343Z,-1.40
2022-12-12T10:05:33.112Z,-1.49
2022-12-12T10:06:43.997Z,-1.69
2022-12-12T10:07:55.505Z,-1.45
2022-12-12T10:09:30.716Z,-1.79
2022-12-12T10:10:40.530Z,-2.23
2022-12-12T10:11:51.420Z,-1.83
2022-12-12T10:12:55.203Z,-1.77
2022-12-12T10:14:00.166Z,-1.47
2022-12-12T10:15:06.789Z,-1.34
2022-12-12T10:16:12.195Z,-1.32
2022-12-12T10:17:44.640Z,-1.41
2022-12-12T10:18:50.319Z,-1.65
2022-12-12T10:19:56.237Z,-1.04
2022-12-12T10:21:01.344Z,-0.87
2022-12-12T10:22:08.344Z,-0.33
2022-12-12T10:23:22.726Z,-0.39
2022-12-12T10:24:36.149Z,-0.57
2022-12-12T10:25:37.448Z,-0.54
2022-12-12T10:26:39.700Z,-0.81
2022-12-12T10:27:41.121Z,-1.06
2022-12-12T10:28:42.485Z,-1.52
2022-12-12T10:29:48.322Z,-1.78
2022-12-12T10:31:17.790Z,-1.68
2022-12-12T10:32:22.135Z,-1.44
2022-12-12T10:33:46.948Z,-1.36
2022-12-12T10:35:11.215Z,-1.41
2022-12-12T10:36:28.453Z,-0.97
2022-12-12T10:37:50.734Z,-0.88
2022-12-12T10:39:05.327Z,-0.86
2022-12-12T10:40:44.763Z,-0.71
2022-12-12T10:41:52.774Z,-0.24
2022-12-12T10:43:12.711Z,0.26
2022-12-12T10:44:31.552Z,0.26
2022-12-12T10:45:44.148Z,0.25
2022-12-12T10:46:57.382Z,0.54
2022-12-12T10:47:59.053Z,0.70
2022-12-12T10:49:00.688Z,0.88
2022-12-12T10:50:34.300Z,0.81
2022-12-12T10:51:35.862Z,0.90
2022-12-12T10:52:37.972Z,1.24
2022-12-12T10:53:40.988Z,1.37
2022-12-12T10:54:47.701Z,1.37
2022-12-12T10:55:56.535Z,1.66
2022-12-12T10:57:11.842Z,1.67
2022-12-12T10:58:18.674Z,2.21
2022-12-12T10:59:23.183Z,2.41
2022-12-12T11:00:34.500Z,2.90
2022-12-12T11:02:09.029Z,3.03
2022-12-12T11:03:15.529Z,2.70
2022-12-12T11:04:17.239Z,2.54
2022-12-12T11:05:25.002Z,2.24
2022-12-12T11:06:38.701Z,1.90
2022-12-12T11:07:43.255Z,2.34
2022-12-12T11:09:03.492Z,2.33
2022-12-12T11:10:14.276Z,2.37
2022-12-12T11:11:26.940Z,2.24
2022-12-12T11:12:35.499Z,2.89
2022-12-12T11:13:54.518Z,2.56
2022-12-12T11:15:10.667Z,3.23
2022-12-12T11:16:17.101Z,5.43
2022-12-12T11:17:25.360Z,8.88
2022-12-12T11:18:27.060Z,10.30
2022-12-12T11:19:37.544Z,10.77
2022-12-12T11:20:47.544Z,11.30
2022-12-12T11:21:49.879Z,11.65
2022-12-12T11:22:54.505Z,10.08
2022-12-12T11:23:58.195Z,9.46
2022-12-12T11:25:00.453Z,9.48
2022-12-12T11:26:17.877Z,8.83
2022-12-12T11:27:26.649Z,9.25
2022-12-12T11:28:35.097Z,10.24
2022-12-12T11:29:46.656Z,10.88
2022-12-12T11:30:52.623Z,11.30
2022-12-12T11:31:55.476Z,12.68
2022-12-12T11:32:57.434Z,12.52
2022-12-12T11:34:01.934Z,11.15
2022-12-12T11:35:07.532Z,10.38
2022-12-12T11:36:17.785Z,11.08
2022-12-12T11:37:23.588Z,10.85
2022-12-12T11:38:30.438Z,12.60
2022-12-12T11:39:40.863Z,14.35
2022-12-12T11:40:47.744Z,14.54
2022-12-12T11:42:13.977Z,12.14
2022-12-12T11:43:25.225Z,11.97
2022-12-12T11:44:31.667Z,13.00
2022-12-12T11:45:33.189Z,13.31
2022-12-12T11:46:34.717Z,13.88
2022-12-12T11:47:46.441Z,14.30
2022-12-12T11:48:54.077Z,14.99
2022-12-12T11:50:00.187Z,14.95
2022-12-12T11:51:02.169Z,14.48
2022-12-12T11:52:18.382Z,14.01
2022-12-12T11:53:19.719Z,15.04
2022-12-12T11:54:28.137Z,15.89
2022-12-12T11:55:51.463Z,14.74
2022-12-12T11:57:04.522Z,14.48
2022-12-12T11:58:26.681Z,15.62
2022-12-12T12:00:08.072Z,14.43
2022-12-12T12:01:16.305Z,14.32
2022-12-12T12:02:31.111Z,14.71
2022-12-12T12:04:11.111Z,15.70
2022-12-12T12:05:34.389Z,15.52
2022-12-12T12:06:54.150Z,15.16
2022-12-12T12:08:23.774Z,15.88
2022-12-12T12:09:48.946Z,15.98
2022-12-12T12:11:25.794Z,16.39
2022-12-12T12:12:58.692Z,15.93
2022-12-12T12:14:42.504Z,15.21
2022-12-12T12:15:50.584Z,16.40
2022-12-12T12:17:10.081Z,15.18
2022-12-12T12:18:17.422Z,14.74
2022-12-12T12:19:35.479Z,15.56
2022-12-12T12:20:43.338Z,14.84
2022-12-12T12:22:07.615Z,13.20
2022-12-12T12:23:29.088Z,14.41
2022-12-12T12:24:39.470Z,12.42
2022-12-12T12:25:46.978Z,11.83
2022-12-12T12:27:11.096Z,12.03
2022-12-12T12:28:33.869Z,10.71
2022-12-12T12:29:50.451Z,11.55
2022-12-12T12:31:16.683Z,11.78
2022-12-12T12:32:49.169Z,10.83
2022-12-12T12:34:35.531Z,11.06
2022-12-12T12:35:49.970Z,11.39
2022-12-12T12:36:57.461Z,11.64
2022-12-12T12:38:12.718Z,11.30
2022-12-12T12:39:24.022Z,12.24
2022-12-12T12:40:56.379Z,12.14
2022-12-12T12:42:16.296Z,12.05
2022-12-12T12:43:28.152Z,11.69
2022-12-12T12:44:52.061Z,11.72
2022-12-12T12:46:00.932Z,10.86
2022-12-12T12:47:05.334Z,10.72
2022-12-12T12:48:17.067Z,9.96
2022-12-12T12:49:27.347Z,9.84
2022-12-12T12:50:38.231Z,7.99
2022-12-12T12:51:50.789Z,9.25
2022-12-12T12:53:22.771Z,9.19
2022-12-12T12:54:30.789Z,8.83
2022-12-12T12:55:45.898Z,8.90
2022-12-12T12:57:23.080Z,8.45
2022-12-12T12:58:30.831Z,9.19
2022-12-12T12:59:40.278Z,10.23
2022-12-12T13:00:42.036Z,10.15
2022-12-12T13:01:47.356Z,10.11
2022-12-12T13:03:17.451Z,8.91
2022-12-12T13:04:31.719Z,9.63
2022-12-12T13:05:39.103Z,9.06
2022-12-12T13:06:47.798Z,9.33
2022-12-12T13:08:15.765Z,8.96
2022-12-12T13:09:29.086Z,8.96
2022-12-12T13:10:31.790Z,8.20
2022-12-12T13:11:38.989Z,8.24
2022-12-12T13:12:46.788Z,7.99
2022-12-12T13:13:50.828Z,7.47
2022-12-12T13:15:02.348Z,7.49
2022-12-12T13:16:20.208Z,6.02
2022-12-12T13:17:39.337Z,6.18
2022-12-12T13:18:45.375Z,7.01
2022-12-12T13:19:50.741Z,7.87
2022-12-12T13:21:00.022Z,7.88
2022-12-12T13:22:07.034Z,8.02
2022-12-12T13:23:30.222Z,7.34
2022-12-12T13:24:57.952Z,7.00
2022-12-12T13:26:11.828Z,7.47
2022-12-12T13:27:26.327Z,7.97
2022-12-12T13:28:42.947Z,7.60
2022-12-12T13:29:57.884Z,7.21
2022-12-12T13:31:11.117Z,7.83
2022-12-12T13:32:38.912Z,8.14
2022-12-12T13:33:46.514Z,8.26
2022-12-12T13:34:53.229Z,7.57
2022-12-12T13:36:09.471Z,6.56
2022-12-12T13:37:21.933Z,6.52
2022-12-12T13:38:29.535Z,6.59
2022-12-12T13:39:34.570Z,6.59
2022-12-12T13:40:42.727Z,6.51
2022-12-12T13:42:02.016Z,7.03
2022-12-12T13:43:14.087Z,6.50
2022-12-12T13:44:40.199Z,6.97
2022-12-12T13:45:43.646Z,6.93
2022-12-12T13:46:45.044Z,6.40
2022-12-12T13:47:51.080Z,6.17
2022-12-12T13:48:57.528Z,6.15
2022-12-12T13:50:19.105Z,6.12
2022-12-12T13:51:33.465Z,6.03
2022-12-12T13:52:42.383Z,6.95
2022-12-12T13:53:43.779Z,6.15
2022-12-12T13:54:47.136Z,5.87
2022-12-12T13:55:48.590Z,5.86
2022-12-12T13:56:52.760Z,6.33
2022-12-12T13:57:59.995Z,6.50
2022-12-12T13:59:01.416Z,6.60
2022-12-12T14:00:14.930Z,5.72
2022-12-12T14:01:32.104Z,6.24
2022-12-12T14:02:41.434Z,5.95
2022-12-12T14:03:46.747Z,5.30
2022-12-12T14:05:08.671Z,5.37
2022-12-12T14:06:12.185Z,4.41
2022-12-12T14:07:17.805Z,4.28
2022-12-12T14:08:27.596Z,4.66
2022-12-12T14:09:47.216Z,3.76
2022-12-12T14:10:49.381Z,3.76
2022-12-12T14:11:50.959Z,3.96
2022-12-12T14:12:53.204Z,4.31
2022-12-12T14:14:23.042Z,3.70
2022-12-12T14:15:32.004Z,3.84
2022-12-12T14:16:35.547Z,3.89
2022-12-12T14:17:42.617Z,4.41
2022-12-12T14:18:50.646Z,4.15
2022-12-12T14:19:54.496Z,4.18
2022-12-12T14:21:03.544Z,4.35
2022-12-12T14:22:04.979Z,3.87
2022-12-12T14:23:20.729Z,3.41
2022-12-12T14:24:34.701Z,3.53
2022-12-12T14:25:39.637Z,3.27
2022-12-12T14:26:40.965Z,3.14
2022-12-12T14:27:49.092Z,2.81
2022-12-12T14:29:23.487Z,2.75
2022-12-12T14:30:44.960Z,2.43
2022-12-12T14:32:11.290Z,3.32
2022-12-12T14:33:15.652Z,3.51
2022-12-12T14:34:34.953Z,3.62
2022-12-12T14:36:02.003Z,2.87
2022-12-12T14:37:24.577Z,2.42
2022-12-12T14:38:35.526Z,2.60
2022-12-12T14:39:55.457Z,2.92
2022-12-12T14:41:01.759Z,3.13
2022-12-12T14:42:06.501Z,3.17
2022-12-12T14:43:19.725Z,3.02
2022-12-12T14:44:37.297Z,3.23
2022-12-12T14:45:41.224Z,3.31
2022-12-12T14:46:42.821Z,3.34
2022-12-12T14:47:44.236Z,3.02
2022-12-12T14:48:45.765Z,2.98
2022-12-12T14:49:47.488Z,3.10
2022-12-12T14:51:07.265Z,2.95
2022-12-12T14:52:16.366Z,3.00
2022-12-12T14:53:21.755Z,3.14
2022-12-12T14:54:24.963Z,2.93
2022-12-12T14:55:26.520Z,3.20
2022-12-12T14:56:29.836Z,3.12
2022-12-12T14:57:31.191Z,3.09
2022-12-12T14:58:36.660Z,2.97
2022-12-12T14:59:40.993Z,2.77
2022-12-12T15:00:52.398Z,2.74
2022-12-12T15:02:01.030Z,2.69
2022-12-12T15:03:04.108Z,2.71
2022-12-12T15:04:08.953Z,2.42
2022-12-12T15:05:14.205Z,2.28
2022-12-12T15:06:27.578Z,2.11
2022-12-12T15:07:32.087Z,2.15
2022-12-12T15:08:33.662Z,1.93
2022-12-12T15:09:39.530Z,1.84
2022-12-12T15:10:41.239Z,1.76
2022-12-12T15:11:43.027Z,1.50
2022-12-12T15:12:44.898Z,1.45
2022-12-12T15:13:54.991Z,1.37
2022-12-12T15:14:57.935Z,1.04
2022-12-12T15:15:59.689Z,0.72
2022-12-12T15:17:07.859Z,0.82
2022-12-12T15:18:10.276Z,0.69
2022-12-12T15:19:19.445Z,-0.06
2022-12-12T15:20:27.147Z,-0.01
2022-12-12T15:21:32.150Z,-0.14
2022-12-12T15:22:36.612Z,-0.07
2022-12-12T15:23:42.032Z,-0.20
2022-12-12T15:24:44.192Z,-0.29
2022-12-12T15:25:54.100Z,-0.45
2022-12-12T15:26:58.840Z,-0.75
2022-12-12T15:28:01.624Z,-1.03
2022-12-12T15:29:03.331Z,-0.96
2022-12-12T15:30:17.882Z,-1.05
2022-12-12T15:31:20.162Z,-1.34
2022-12-12T15:32:24.156Z,-1.52
2022-12-12T15:33:27.628Z,-1.63
2022-12-12T15:34:31.938Z,-1.70
2022-12-12T15:35:33.659Z,-1.94
2022-12-12T15:36:35.045Z,-1.62
2022-12-12T15:37:38.476Z,-1.86
2022-12-12T15:38:43.497Z,-1.90
2022-12-12T15:39:45.014Z,-1.89
2022-12-12T15:40:51.625Z,-1.96
2022-12-12T15:41:53.071Z,-2.13
2022-12-12T15:42:57.659Z,-2.08
2022-12-12T15:43:59.526Z,-2.09
2022-12-12T15:45:01.508Z,-2.07
2022-12-12T15:46:14.446Z,-2.33
2022-12-12T15:47:17.144Z,-2.25
2022-12-12T15:48:19.684Z,-2.15
2022-12-12T15:49:37.444Z,-2.30
2022-12-12T15:50:56.262Z,-2.44
2022-12-12T15:51:57.642Z,-2.52
2022-12-12T15:53:05.740Z,-2.64
2022-12-12T15:54:07.336Z,-2.57
2022-12-12T15:55:21.491Z,-2.67
2022-12-12T15:56:28.955Z,-2.75
